Time;durP1;ratioP1;P1;durP2;ratioP2;P2;SDS_P1;SDS_P2;PMS_P1;PMS_P2;Temp;Humidity;BMP_temperature;BMP_pressure;BME280_temperature;BME280_humidity;BME280_pressure;Samples;Min_cycle;Max_cycle;Signal;HPM_P1;HPM_P2
2022/05/15 00:01:18;;;;;;;9.55;3.72;;;;;;;21.55;37.46;101722.59;5015111;28;20120;-67
2022/05/15 00:03:43;;;;;;;12.23;4.35;;;;;;;21.48;38.06;101717.88;5025086;28;20072;-66
2022/05/15 00:06:09;;;;;;;9.40;4.97;;;;;;;21.46;38.42;101719.94;5026100;28;20025;-66
2022/05/15 00:08:35;;;;;;;11.50;3.63;;;;;;;21.44;38.42;101716.50;5024486;28;20025;-66
2022/05/15 00:11:02;;;;;;;9.63;3.45;;;;;;;21.44;38.29;101721.97;5042477;28;20037;-66
2022/05/15 00:13:29;;;;;;;10.77;3.55;;;;;;;21.45;38.29;101720.94;5025818;28;20410;-66
2022/05/15 00:15:55;;;;;;;9.77;3.20;;;;;;;21.44;38.58;101719.22;5040691;28;20091;-67
2022/05/15 00:18:22;;;;;;;6.97;3.70;;;;;;;21.42;38.20;101723.16;5027162;28;20483;-67
2022/05/15 00:20:49;;;;;;;6.93;3.83;;;;;;;21.39;38.48;101723.53;5025498;28;20062;-67
2022/05/15 00:23:15;;;;;;;7.38;4.30;;;;;;;21.33;38.26;101716.91;5024990;28;20051;-66
2022/05/15 00:25:41;;;;;;;10.57;3.58;;;;;;;21.27;38.50;101717.59;5009086;28;20030;-66
2022/05/15 00:28:07;;;;;;;8.32;4.25;;;;;;;21.20;38.54;101713.06;5024954;28;20038;-67
2022/05/15 00:30:34;;;;;;;11.05;3.97;;;;;;;21.15;38.83;101705.41;5027239;28;20427;-66
2022/05/15 00:33:00;;;;;;;8.00;3.92;;;;;;;21.12;38.80;101705.75;5007626;28;20100;-67
2022/05/15 00:35:26;;;;;;;7.38;4.00;;;;;;;21.08;38.70;101709.84;5026034;28;20075;-65
2022/05/15 00:37:52;;;;;;;7.78;3.55;;;;;;;21.02;38.91;101713.25;5025214;28;20024;-67
2022/05/15 00:40:19;;;;;;;6.25;3.50;;;;;;;20.98;39.00;101703.75;5024463;28;20427;-65
2022/05/15 00:42:45;;;;;;;5.25;3.72;;;;;;;20.92;39.07;101708.00;5026905;28;20026;-66
2022/05/15 00:45:11;;;;;;;8.32;3.95;;;;;;;20.87;38.52;101701.38;5037601;28;20469;-67
2022/05/15 00:47:37;;;;;;;9.55;3.47;;;;;;;20.82;38.70;101703.78;5034808;28;20024;-66
2022/05/15 00:50:05;;;;;;;5.78;3.65;;;;;;;20.78;38.54;101716.03;5033667;28;20022;-67
2022/05/15 00:52:33;;;;;;;17.63;4.63;;;;;;;20.73;39.45;101713.00;5034466;28;20036;-66
2022/05/15 00:55:14;;;;;;;5.68;3.28;;;;;;;20.67;38.76;101710.97;5034950;28;20490;-67
2022/05/15 00:57:43;;;;;;;6.78;4.05;;;;;;;20.62;38.95;101707.91;5033612;28;20379;-67
2022/05/15 01:00:17;;;;;;;11.93;4.50;;;;;;;20.56;39.25;101711.31;5043030;28;20048;-66
2022/05/15 01:03:04;;;;;;;9.65;3.38;;;;;;;20.51;39.42;101702.84;5032456;28;20021;-67
2022/05/15 01:05:32;;;;;;;12.48;3.65;;;;;;;20.47;39.16;101704.19;5030886;28;20032;-67
2022/05/15 01:07:57;;;;;;;5.35;3.78;;;;;;;20.45;39.51;101708.97;5030991;28;20025;-66
2022/05/15 01:10:22;;;;;;;9.13;4.50;;;;;;;20.43;39.36;101708.28;5013542;28;20017;-66
2022/05/15 01:12:48;;;;;;;9.13;4.82;;;;;;;20.39;39.06;101709.63;5031615;28;20025;-67
2022/05/15 01:15:20;;;;;;;18.63;5.07;;;;;;;20.33;39.67;101703.00;5044433;28;20024;-67
2022/05/15 01:17:46;;;;;;;25.40;4.40;;;;;;;20.30;38.92;101704.22;5035185;28;20022;-66
2022/05/15 01:20:14;;;;;;;5.85;3.78;;;;;;;20.25;39.66;101709.31;5035725;28;20034;-67
2022/05/15 01:22:39;;;;;;;9.32;4.00;;;;;;;20.24;39.59;101710.31;5035520;28;20112;-67
2022/05/15 01:25:12;;;;;;;15.18;4.35;;;;;;;20.21;39.50;101715.25;5036018;28;20064;-67
2022/05/15 01:27:37;;;;;;;5.00;3.92;;;;;;;20.17;39.74;101713.88;5035533;28;20029;-66
2022/05/15 01:30:05;;;;;;;9.77;4.70;;;;;;;20.12;39.97;101716.25;5035445;28;20525;-67
2022/05/15 01:32:31;;;;;;;8.77;3.90;;;;;;;20.09;40.07;101713.88;5035525;28;20449;-67
2022/05/15 01:34:57;;;;;;;13.52;5.03;;;;;;;20.07;39.70;101713.19;5035733;28;20022;-67
2022/05/15 01:37:22;;;;;;;6.55;3.72;;;;;;;20.05;39.90;101710.63;5035549;28;20533;-68
2022/05/15 01:39:48;;;;;;;9.55;4.50;;;;;;;20.01;39.94;101714.72;5035369;28;20536;-65
2022/05/15 01:42:13;;;;;;;10.20;4.20;;;;;;;19.98;39.47;101709.63;5035381;28;20075;-66
2022/05/15 01:44:38;;;;;;;8.70;3.78;;;;;;;19.97;40.11;101713.34;5035305;28;20025;-66
2022/05/15 01:47:04;;;;;;;6.40;4.00;;;;;;;19.93;39.81;101714.72;5035183;28;20521;-67
2022/05/15 01:49:29;;;;;;;10.18;4.65;;;;;;;19.90;39.82;101715.06;5035290;28;20082;-66
2022/05/15 01:51:55;;;;;;;11.57;4.28;;;;;;;19.89;39.95;101713.34;5035272;28;20117;-66
2022/05/15 01:54:20;;;;;;;7.45;4.50;;;;;;;19.88;40.21;101714.34;5035160;28;20029;-67
2022/05/15 01:56:45;;;;;;;10.38;4.40;;;;;;;19.84;39.89;101710.28;5035353;28;20030;-67
2022/05/15 01:59:11;;;;;;;13.75;4.85;;;;;;;19.81;40.23;101707.91;5035038;28;20081;-67
2022/05/15 02:01:37;;;;;;;7.85;4.78;;;;;;;19.77;40.09;101704.66;5035039;28;20029;-67
2022/05/15 02:04:03;;;;;;;8.90;4.57;;;;;;;19.72;41.02;101703.47;5034897;28;20061;-66
2022/05/15 02:06:28;;;;;;;8.95;5.10;;;;;;;19.69;40.76;101707.38;5034826;28;20033;-67
2022/05/15 02:08:54;;;;;;;6.05;4.28;;;;;;;19.66;40.31;101710.41;5035052;28;20039;-67
2022/05/15 02:11:20;;;;;;;12.25;5.40;;;;;;;19.62;40.51;101702.75;5035177;28;20029;-67
2022/05/15 02:13:45;;;;;;;12.98;4.57;;;;;;;19.60;40.60;101711.06;5034915;28;20079;-65
2022/05/15 02:16:11;;;;;;;15.77;4.70;;;;;;;19.57;40.07;101711.41;5017045;28;20041;-67
2022/05/15 02:18:36;;;;;;;9.68;4.30;;;;;;;19.55;40.39;101707.16;5034149;28;20057;-67
2022/05/15 02:21:01;;;;;;;6.50;4.07;;;;;;;19.51;40.48;101709.38;5034663;28;20026;-66
2022/05/15 02:23:27;;;;;;;6.38;4.20;;;;;;;19.47;40.19;101709.84;5035075;28;20033;-65
2022/05/15 02:25:53;;;;;;;8.65;4.20;;;;;;;19.44;40.47;101704.75;5034784;28;20037;-67
2022/05/15 02:28:19;;;;;;;9.27;4.75;;;;;;;19.42;41.10;101704.06;5034648;28;20515;-67
2022/05/15 02:30:47;;;;;;;14.32;4.63;;;;;;;19.38;40.73;101702.63;5034381;28;20025;-67
2022/05/15 02:33:13;;;;;;;8.13;4.07;;;;;;;19.35;40.46;101700.25;5034055;28;20092;-67
2022/05/15 02:35:38;;;;;;;9.70;4.38;;;;;;;19.34;40.77;101704.88;5034403;28;20479;-67
2022/05/15 02:38:04;;;;;;;6.75;4.18;;;;;;;19.31;40.70;101705.19;5034356;28;20026;-67
2022/05/15 02:40:30;;;;;;;9.98;4.25;;;;;;;19.28;40.31;101712.81;5034329;28;20025;-67
2022/05/15 02:42:56;;;;;;;6.72;4.18;;;;;;;19.25;40.72;101704.97;5034281;28;20383;-67
2022/05/15 02:45:22;;;;;;;8.20;4.25;;;;;;;19.22;40.94;101706.16;5016614;28;20090;-67
2022/05/15 02:47:47;;;;;;;15.85;4.60;;;;;;;19.18;40.97;101693.91;5034236;28;20018;-66
2022/05/15 02:52:57;;;;;;;7.00;4.63;;;;;;;19.12;41.40;101697.31;5019015;28;20074;-67
2022/05/15 02:55:23;;;;;;;7.28;4.53;;;;;;;19.11;41.27;101709.16;5034275;28;20398;-67
2022/05/15 02:57:50;;;;;;;11.13;5.25;;;;;;;19.08;41.02;101702.22;5034110;28;20364;-67
2022/05/15 03:00:16;;;;;;;8.68;4.32;;;;;;;19.06;40.44;101706.97;5033771;28;20052;-67
2022/05/15 03:02:42;;;;;;;8.18;4.53;;;;;;;19.04;40.79;101703.53;5033751;28;20526;-67
2022/05/15 03:05:09;;;;;;;6.47;4.60;;;;;;;19.03;41.20;101707.28;5016187;28;20117;-67
2022/05/15 03:07:36;;;;;;;8.50;4.97;;;;;;;19.01;41.70;101700.31;5033739;28;20025;-67
2022/05/15 03:10:01;;;;;;;10.90;5.50;;;;;;;18.97;41.13;101697.06;5033875;28;20060;-66
2022/05/15 03:12:27;;;;;;;6.15;4.22;;;;;;;18.96;41.98;101694.50;5033722;28;20033;-66
2022/05/15 03:14:52;;;;;;;5.43;4.20;;;;;;;18.94;40.86;101686.53;5033941;28;20028;-67
2022/05/15 03:17:18;;;;;;;5.13;4.03;;;;;;;18.91;41.57;101686.84;5034055;28;20017;-66
2022/05/15 03:19:44;;;;;;;7.50;4.28;;;;;;;18.88;40.61;101684.44;5014070;28;20021;-67
2022/05/15 03:22:09;;;;;;;4.95;3.63;;;;;;;18.86;41.30;101682.91;5013841;28;20041;-67
2022/05/15 03:24:35;;;;;;;8.07;4.55;;;;;;;18.83;40.65;101688.66;5013898;28;20053;-67
2022/05/15 03:27:00;;;;;;;9.35;4.43;;;;;;;18.79;40.93;101682.69;5014161;28;20088;-67
2022/05/15 03:29:27;;;;;;;9.40;4.97;;;;;;;18.76;40.62;101680.31;5029120;28;20109;-66
2022/05/15 03:31:52;;;;;;;11.77;5.07;;;;;;;18.71;41.82;101668.22;5013614;28;20033;-68
2022/05/15 03:34:18;;;;;;;9.80;5.22;;;;;;;18.69;41.71;101681.97;5013887;28;20467;-67
2022/05/15 03:36:45;;;;;;;5.18;4.30;;;;;;;18.65;40.73;101668.91;5013896;28;20021;-67
2022/05/15 03:39:11;;;;;;;13.85;4.60;;;;;;;18.63;42.20;101677.19;5013833;28;20037;-66
2022/05/15 03:41:37;;;;;;;10.52;5.80;;;;;;;18.61;41.64;101673.78;5014087;28;20022;-66
2022/05/15 03:44:03;;;;;;;9.23;4.63;;;;;;;18.60;41.45;101675.66;5041555;28;20060;-67
2022/05/15 03:46:28;;;;;;;11.95;5.38;;;;;;;18.58;41.57;101679.53;5053406;28;20021;-66
2022/05/15 03:48:54;;;;;;;13.50;5.00;;;;;;;18.56;41.46;101676.13;5053371;28;20029;-67
2022/05/15 03:51:20;;;;;;;9.15;4.97;;;;;;;18.53;41.51;101681.88;5053468;28;20086;-67
2022/05/15 03:53:45;;;;;;;8.40;5.28;;;;;;;18.51;41.82;101673.88;5053280;28;20036;-66
2022/05/15 03:56:11;;;;;;;13.32;4.40;;;;;;;18.51;41.60;101676.59;5053155;28;20070;-67
2022/05/15 03:58:37;;;;;;;11.75;4.88;;;;;;;18.48;41.22;101673.38;5052724;28;20110;-67
2022/05/15 04:01:04;;;;;;;9.00;4.60;;;;;;;18.46;41.63;101678.91;5053187;28;20048;-67
2022/05/15 04:03:29;;;;;;;7.60;4.70;;;;;;;18.42;41.98;101674.84;5053345;28;20031;-66
2022/05/15 04:05:55;;;;;;;6.43;4.40;;;;;;;18.40;42.14;101684.97;5053086;28;20472;-66
2022/05/15 04:08:20;;;;;;;6.68;4.93;;;;;;;18.38;41.50;101678.00;5035175;28;20035;-67
2022/05/15 04:10:46;;;;;;;6.78;4.05;;;;;;;18.36;41.35;101680.88;5053003;28;20043;-66
2022/05/15 04:13:12;;;;;;;9.20;4.88;;;;;;;18.35;42.00;101679.19;5052732;28;20035;-67
2022/05/15 04:15:37;;;;;;;7.93;5.55;;;;;;;18.35;41.30;101689.16;5052944;28;20045;-66
2022/05/15 04:18:05;;;;;;;11.85;5.72;;;;;;;18.34;42.67;101685.59;5053210;28;20028;-67
2022/05/15 04:20:31;;;;;;;14.95;5.60;;;;;;;18.34;42.46;101676.63;5035653;28;20024;-67
2022/05/15 04:22:56;;;;;;;10.73;6.13;;;;;;;18.36;42.66;101680.03;5052961;28;20017;-66
2022/05/15 04:25:21;;;;;;;7.38;4.72;;;;;;;18.38;41.81;101684.28;5052969;28;20056;-67
2022/05/15 04:27:47;;;;;;;8.10;5.28;;;;;;;18.43;42.09;101678.38;5052840;28;20029;-67
2022/05/15 04:30:16;;;;;;;9.10;5.30;;;;;;;18.46;41.54;101681.63;5052742;28;20057;-67
2022/05/15 04:32:44;;;;;;;8.50;5.30;;;;;;;18.55;42.05;101686.13;5034626;28;20036;-67
2022/05/15 04:35:10;;;;;;;15.52;6.40;;;;;;;18.68;41.75;101679.44;5053044;28;20021;-67
2022/05/15 04:37:36;;;;;;;12.20;6.47;;;;;;;18.80;41.63;101687.13;5052852;28;20024;-67
2022/05/15 04:40:02;;;;;;;12.68;6.90;;;;;;;18.95;42.12;101685.53;5052607;28;20021;-66
2022/05/15 04:42:27;;;;;;;14.85;6.80;;;;;;;19.09;41.07;101698.50;5053855;28;20021;-67
2022/05/15 04:44:53;;;;;;;12.20;7.68;;;;;;;19.24;41.59;101687.81;5056652;28;20033;-67
2022/05/15 04:47:18;;;;;;;14.05;7.35;;;;;;;19.36;42.24;101691.09;5056410;28;20067;-67
2022/05/15 04:49:44;;;;;;;16.05;8.25;;;;;;;19.46;42.65;101691.81;5056439;28;20466;-67
2022/05/15 04:52:10;;;;;;;11.48;6.15;;;;;;;19.58;41.32;101696.81;5056409;28;20032;-66
2022/05/15 04:54:36;;;;;;;11.23;7.55;;;;;;;19.71;41.74;101690.88;5056201;28;20029;-67
2022/05/15 04:57:01;;;;;;;16.77;6.80;;;;;;;19.83;41.87;101697.69;5056280;28;20497;-67
2022/05/15 04:59:26;;;;;;;15.07;6.63;;;;;;;19.98;41.50;101689.72;5056127;28;20570;-67
2022/05/15 05:01:52;;;;;;;10.07;6.55;;;;;;;20.10;41.96;101688.38;5055936;28;20109;-67
2022/05/15 05:04:17;;;;;;;11.48;7.18;;;;;;;20.23;42.08;101697.72;5056212;28;20028;-68
2022/05/15 05:06:42;;;;;;;10.63;6.20;;;;;;;20.36;41.40;101690.94;5055778;28;20051;-67
2022/05/15 05:09:08;;;;;;;18.35;6.72;;;;;;;20.45;41.20;101690.75;5055872;28;20029;-66
2022/05/15 05:11:33;;;;;;;12.18;7.55;;;;;;;20.59;41.52;101700.94;5055682;28;20067;-66
2022/05/15 05:13:59;;;;;;;11.40;6.75;;;;;;;20.76;41.04;101704.50;5056006;28;20024;-67
2022/05/15 05:16:24;;;;;;;11.60;7.05;;;;;;;20.91;41.68;101702.72;5055867;28;20020;-67
2022/05/15 05:18:50;;;;;;;14.20;6.63;;;;;;;21.07;41.23;101700.00;5055753;28;20027;-67
2022/05/15 05:21:15;;;;;;;10.70;6.53;;;;;;;21.24;40.66;101693.47;5038005;28;20522;-67
2022/05/15 05:23:40;;;;;;;15.52;6.72;;;;;;;21.37;41.58;101703.78;5055586;28;20383;-67
2022/05/15 05:26:06;;;;;;;14.75;6.35;;;;;;;21.54;41.29;101699.94;5055995;28;20036;-67
2022/05/15 05:28:31;;;;;;;12.75;7.60;;;;;;;21.72;41.00;101686.03;5055633;28;20024;-66
2022/05/15 05:30:57;;;;;;;14.25;6.53;;;;;;;21.87;40.20;101697.88;5055591;28;20028;-67
2022/05/15 05:33:23;;;;;;;15.30;7.07;;;;;;;22.01;40.70;101687.03;5046207;28;20030;-67
2022/05/15 05:35:49;;;;;;;11.77;6.80;;;;;;;22.15;40.23;101688.09;5015656;28;20022;-67
2022/05/15 05:38:15;;;;;;;11.80;7.25;;;;;;;22.31;40.91;101687.97;5015749;28;20506;-67
2022/05/15 05:40:40;;;;;;;12.57;7.57;;;;;;;22.42;40.76;101692.97;5015671;28;20061;-68
2022/05/15 05:43:06;;;;;;;15.38;6.20;;;;;;;22.58;40.71;101683.78;5015723;28;20041;-66
2022/05/15 05:45:31;;;;;;;9.90;5.88;;;;;;;22.70;39.82;101686.94;5015610;28;20033;-66
2022/05/15 05:47:57;;;;;;;15.57;7.10;;;;;;;22.77;39.75;101683.28;5015973;28;20026;-66
2022/05/15 05:50:24;;;;;;;9.48;6.90;;;;;;;22.95;39.73;101680.13;5055594;28;20032;-66
2022/05/15 05:52:49;;;;;;;16.33;6.43;;;;;;;23.16;39.21;101692.03;5037450;28;20032;-66
2022/05/15 05:55:16;;;;;;;14.30;6.47;;;;;;;23.42;39.29;101688.78;5054048;28;20021;-66
2022/05/15 05:57:43;;;;;;;20.75;6.97;;;;;;;23.66;39.58;101680.25;5055496;28;20386;-66
2022/05/15 06:00:12;;;;;;;16.73;6.13;;;;;;;23.89;39.00;101690.16;5055437;28;20483;-66
2022/05/15 06:02:37;;;;;;;10.95;6.32;;;;;;;24.00;38.78;101695.13;5020729;28;20032;-67
2022/05/15 06:05:03;;;;;;;13.27;7.03;;;;;;;23.98;39.04;101680.78;5054918;28;20029;-67
2022/05/15 06:07:29;;;;;;;11.18;6.20;;;;;;;24.20;39.32;101680.59;5037091;28;20061;-67
2022/05/15 06:09:54;;;;;;;8.10;5.55;;;;;;;24.40;39.58;101680.75;5055077;28;20032;-67
2022/05/15 06:12:22;;;;;;;9.90;5.57;;;;;;;24.59;38.67;101671.88;5055277;28;20027;-67
2022/05/15 06:14:47;;;;;;;14.38;5.93;;;;;;;24.71;39.04;101674.88;5054981;28;20414;-66
2022/05/15 06:17:13;;;;;;;14.57;6.05;;;;;;;24.96;38.38;101678.03;5054734;28;20017;-66
2022/05/15 06:19:40;;;;;;;11.18;6.00;;;;;;;25.15;38.20;101671.78;5036616;28;20035;-66
2022/05/15 06:22:05;;;;;;;11.27;5.00;;;;;;;25.22;38.12;101669.91;5054915;28;20025;-67
2022/05/15 06:24:31;;;;;;;11.98;5.22;;;;;;;25.31;38.83;101668.69;5036821;28;20032;-67
2022/05/15 06:26:58;;;;;;;10.88;5.28;;;;;;;25.49;37.82;101671.72;5054762;28;20063;-66
2022/05/15 06:29:24;;;;;;;8.85;4.95;;;;;;;25.66;38.03;101673.06;5054704;28;20470;-66
2022/05/15 06:31:50;;;;;;;10.38;4.68;;;;;;;25.80;37.86;101660.19;5054543;28;20067;-67
2022/05/15 06:34:15;;;;;;;9.85;4.50;;;;;;;25.93;38.16;101663.84;5054425;28;20029;-67
2022/05/15 06:36:41;;;;;;;11.73;4.57;;;;;;;26.04;37.80;101671.44;5054183;28;20020;-66
2022/05/15 06:39:07;;;;;;;6.63;3.85;;;;;;;26.11;37.17;101665.09;5024050;28;20419;-67
2022/05/15 06:41:32;;;;;;;13.25;5.15;;;;;;;26.17;37.56;101673.38;5014413;28;20538;-66
2022/05/15 06:43:58;;;;;;;9.38;4.57;;;;;;;26.25;37.38;101675.06;5014378;28;20033;-67
2022/05/15 06:46:23;;;;;;;7.88;4.00;;;;;;;26.30;37.30;101678.88;5014348;28;20026;-66
2022/05/15 06:48:49;;;;;;;9.65;4.00;;;;;;;26.37;37.21;101673.38;5014364;28;20025;-66
2022/05/15 06:51:16;;;;;;;9.77;4.75;;;;;;;26.38;37.34;101675.06;5014624;28;20483;-66
2022/05/15 06:53:43;;;;;;;15.85;4.45;;;;;;;26.47;36.71;101673.78;5014207;28;20485;-66
2022/05/15 06:58:52;;;;;;;7.47;3.85;;;;;;;26.86;36.45;101671.00;5013922;28;20058;-66
2022/05/15 07:01:17;;;;;;;11.07;4.57;;;;;;;26.96;36.41;101676.91;5029362;28;20532;-67
2022/05/15 07:03:43;;;;;;;10.90;4.60;;;;;;;27.12;36.71;101679.19;5014036;28;20060;-67
2022/05/15 07:06:10;;;;;;;15.23;4.15;;;;;;;27.34;36.48;101671.47;5016438;28;20026;-65
2022/05/15 07:08:35;;;;;;;6.97;4.32;;;;;;;27.51;35.93;101678.19;5031430;28;20113;-67
2022/05/15 07:11:01;;;;;;;9.30;3.70;;;;;;;27.70;36.02;101676.38;5053467;28;20104;-67
2022/05/15 07:13:26;;;;;;;7.35;3.58;;;;;;;27.96;34.97;101670.72;5053206;28;20070;-66
2022/05/15 07:15:52;;;;;;;6.20;3.58;;;;;;;28.17;35.57;101672.28;5053307;28;20029;-67
2022/05/15 07:18:17;;;;;;;11.82;3.72;;;;;;;28.30;34.47;101667.53;5053517;28;20101;-66
2022/05/15 07:20:42;;;;;;;6.80;3.10;;;;;;;28.45;34.68;101669.09;5053628;28;20021;-66
2022/05/15 07:23:08;;;;;;;11.45;3.63;;;;;;;28.63;34.72;101666.38;5053371;28;20021;-66
2022/05/15 07:25:33;;;;;;;10.73;3.30;;;;;;;28.85;34.79;101667.63;5053525;28;20072;-66
2022/05/15 07:27:58;;;;;;;11.77;3.45;;;;;;;29.05;33.77;101662.75;5053799;28;20021;-67
2022/05/15 07:30:24;;;;;;;5.88;2.95;;;;;;;29.22;33.85;101655.56;5053573;28;20399;-66
2022/05/15 07:32:49;;;;;;;5.45;2.78;;;;;;;29.40;33.73;101668.47;5053546;28;20075;-66
2022/05/15 07:35:17;;;;;;;7.53;2.72;;;;;;;29.55;33.49;101659.78;5038096;28;20033;-67
2022/05/15 07:37:43;;;;;;;8.63;2.90;;;;;;;29.78;33.31;101657.97;5036985;28;20013;-66
2022/05/15 07:40:09;;;;;;;9.57;3.15;;;;;;;29.97;33.63;101656.84;5035708;28;20071;-67
2022/05/15 07:42:36;;;;;;;5.78;3.05;;;;;;;30.07;33.66;101653.47;5048805;28;20040;-67
2022/05/15 07:45:02;;;;;;;5.88;2.90;;;;;;;30.23;33.14;101650.03;5013660;28;20520;-67
2022/05/15 07:47:27;;;;;;;4.90;2.40;;;;;;;30.42;32.74;101654.41;5013533;28;20108;-67
2022/05/15 07:49:53;;;;;;;13.45;2.95;;;;;;;30.55;32.77;101648.63;5013350;28;20480;-68
2022/05/15 07:52:18;;;;;;;4.97;2.70;;;;;;;30.62;32.28;101651.28;5013328;28;20430;-68
2022/05/15 07:54:43;;;;;;;10.65;2.88;;;;;;;30.77;32.02;101645.25;5034833;28;20029;-68
2022/05/15 07:57:09;;;;;;;8.52;2.67;;;;;;;30.99;31.94;101644.41;5052936;28;20032;-67
2022/05/15 07:59:34;;;;;;;4.65;2.70;;;;;;;31.16;31.57;101647.25;5035108;28;20044;-67
2022/05/15 08:02:02;;;;;;;3.60;2.40;;;;;;;31.32;31.32;101645.66;5053146;28;20040;-67
2022/05/15 08:04:28;;;;;;;7.80;3.10;;;;;;;31.36;31.03;101649.59;5052848;28;20021;-67
2022/05/15 08:09:37;;;;;;;6.30;2.28;;;;;;;31.60;30.58;101654.00;5052852;28;20068;-67
2022/05/15 08:12:03;;;;;;;4.80;2.38;;;;;;;31.65;30.43;101635.53;5052864;28;20060;-68
2022/05/15 08:14:29;;;;;;;14.00;2.40;;;;;;;31.76;29.94;101644.88;5052562;28;20111;-67
2022/05/15 08:16:55;;;;;;;8.32;2.72;;;;;;;31.82;29.97;101640.25;5034743;28;20028;-67
2022/05/15 08:24:48;;;;;;;6.00;2.53;;;;;;;32.05;28.97;101629.88;5056510;28;20047;-67
2022/05/15 08:27:14;;;;;;;9.80;2.63;;;;;;;32.23;29.44;101620.47;5056752;28;20112;-68
2022/05/15 08:29:40;;;;;;;7.53;2.85;;;;;;;32.51;29.57;101623.13;5056319;28;20108;-67
2022/05/15 08:32:06;;;;;;;5.18;1.73;;;;;;;32.77;29.05;101611.34;5038353;28;20040;-67
2022/05/15 08:34:32;;;;;;;5.93;2.10;;;;;;;33.02;29.34;101615.53;5038332;28;20032;-67
2022/05/15 08:37:00;;;;;;;6.93;2.08;;;;;;;33.21;28.98;101628.03;5056206;28;20029;-68
2022/05/15 08:39:27;;;;;;;12.57;2.20;;;;;;;33.37;28.65;101621.53;5053663;28;20482;-67
2022/05/15 08:42:11;;;;;;;5.72;1.95;;;;;;;33.48;27.36;101609.44;5054505;28;20025;-68
2022/05/15 08:44:42;;;;;;;6.35;2.47;;;;;;;33.57;27.10;101615.34;5016350;28;20471;-68
2022/05/15 08:47:26;;;;;;;13.32;2.65;;;;;;;33.64;27.62;101602.94;5016178;28;20034;-68
2022/05/15 08:49:57;;;;;;;5.00;2.50;;;;;;;33.72;28.09;101602.50;5016579;28;20182;-68
2022/05/15 08:52:40;;;;;;;10.35;2.15;;;;;;;33.83;27.13;101598.72;5002944;28;20022;-68
2022/05/15 08:55:07;;;;;;;9.52;2.63;;;;;;;33.90;26.53;101590.97;5015028;28;20076;-67
2022/05/15 08:57:45;;;;;;;9.50;2.60;;;;;;;34.03;27.42;101591.63;5015999;28;20053;-66
2022/05/15 09:00:13;;;;;;;8.70;3.00;;;;;;;34.09;27.44;101596.97;5016270;28;20057;-67
2022/05/15 09:02:41;;;;;;;6.57;1.83;;;;;;;34.12;26.74;101592.81;4998666;28;20541;-68
2022/05/15 09:05:08;;;;;;;6.43;2.38;;;;;;;34.22;26.99;101590.13;5016683;28;20076;-67
2022/05/15 09:07:39;;;;;;;6.50;1.80;;;;;;;34.37;27.02;101590.22;5016365;28;20065;-67
2022/05/15 09:10:10;;;;;;;6.90;1.73;;;;;;;34.55;26.90;101592.56;5016229;28;20021;-67
2022/05/15 09:12:36;;;;;;;4.82;1.90;;;;;;;34.67;26.64;101590.47;5018253;28;20108;-68
2022/05/15 09:15:11;;;;;;;7.63;1.83;;;;;;;34.83;25.54;101597.78;5018423;28;20479;-67
2022/05/15 09:17:49;;;;;;;4.75;1.95;;;;;;;34.97;25.80;101603.69;5035974;28;20075;-67
2022/05/15 09:20:27;;;;;;;7.60;1.95;;;;;;;35.01;25.49;101593.69;5051125;28;20033;-67
2022/05/15 09:23:01;;;;;;;7.78;2.60;;;;;;;35.16;26.01;101601.25;5018088;28;20443;-66
2022/05/15 09:25:32;;;;;;;3.70;1.83;;;;;;;35.24;25.48;101600.72;5051013;28;20030;-68
2022/05/15 09:28:02;;;;;;;9.35;2.35;;;;;;;35.30;25.40;101596.84;5035139;28;20529;-67
2022/05/15 09:30:36;;;;;;;5.93;2.20;;;;;;;35.30;25.33;101596.84;5035809;28;20104;-67
2022/05/15 09:33:01;;;;;;;5.78;2.00;;;;;;;35.34;24.56;101592.41;5035429;28;20041;-67
2022/05/15 09:35:32;;;;;;;5.40;1.58;;;;;;;35.41;25.33;101592.97;5035391;28;20022;-68
2022/05/15 09:43:33;;;;;;;6.35;2.63;;;;;;;35.84;24.85;101584.16;5035451;28;20489;-66
2022/05/15 09:46:20;;;;;;;6.53;1.90;;;;;;;35.99;24.45;101586.91;5017408;28;20072;-68
2022/05/15 09:48:56;;;;;;;10.77;3.35;;;;;;;36.12;24.73;101583.63;5035187;28;20029;-68
2022/05/15 09:51:43;;;;;;;3.17;1.63;;;;;;;36.28;23.92;101575.19;5035111;28;20022;-68
2022/05/15 09:54:11;;;;;;;11.15;2.90;;;;;;;36.52;24.08;101579.06;5035256;28;20060;-69
2022/05/15 09:56:36;;;;;;;9.20;4.65;;;;;;;36.90;23.48;101583.97;5017782;28;20025;-69
2022/05/15 09:59:04;;;;;;;16.05;14.63;;;;;;;37.40;22.98;101576.47;5017247;28;20458;-67
2022/05/15 10:01:36;;;;;;;6.03;4.75;;;;;;;38.06;22.75;101569.25;5034929;28;20096;-69
2022/05/15 10:04:06;;;;;;;4.03;2.05;;;;;;;39.12;22.08;101570.88;5034940;28;20025;-68
2022/05/15 10:06:48;;;;;;;7.10;2.17;;;;;;;40.25;21.29;101577.25;5035196;28;20029;-67
2022/05/15 10:09:30;;;;;;;5.90;1.52;;;;;;;40.31;20.78;101576.00;5035206;28;20032;-67
2022/05/15 10:12:05;;;;;;;4.68;1.67;;;;;;;39.69;21.32;101574.56;5034650;28;20025;-66
2022/05/15 10:15:09;;;;;;;8.93;1.73;;;;;;;39.21;21.65;101569.09;5050345;28;20033;-66
2022/05/15 10:17:40;;;;;;;4.97;1.63;;;;;;;39.00;21.86;101568.50;4939101;29;20031;-68
2022/05/15 10:20:25;;;;;;;4.45;1.90;;;;;;;38.93;21.49;101564.41;4954614;29;20031;-68
2022/05/15 10:23:06;;;;;;;4.75;2.08;;;;;;;38.99;21.62;101554.78;4954674;29;20051;-68
2022/05/15 10:25:50;;;;;;;7.45;2.10;;;;;;;39.15;22.32;101552.59;4954733;29;20053;-68
2022/05/15 10:28:27;;;;;;;3.20;2.00;;;;;;;39.06;22.26;101549.63;4954891;29;20097;-68
2022/05/15 10:31:13;;;;;;;8.80;3.10;;;;;;;39.18;22.19;101552.84;4954677;29;20042;-68
2022/05/15 10:33:41;;;;;;;3.80;2.45;;;;;;;39.43;21.55;101546.88;4954709;29;20035;-68
2022/05/15 10:36:27;;;;;;;4.20;1.98;;;;;;;39.65;20.56;101551.03;4954904;29;20035;-68
2022/05/15 10:39:08;;;;;;;5.80;2.60;;;;;;;39.77;20.86;101548.59;4954344;29;20027;-68
2022/05/15 10:41:50;;;;;;;5.03;1.80;;;;;;;39.92;20.79;101546.38;4954116;28;20043;-68
2022/05/15 10:44:44;;;;;;;3.88;1.95;;;;;;;40.16;21.04;101540.63;4954411;29;20077;-68
2022/05/15 10:47:17;;;;;;;7.88;2.47;;;;;;;40.38;20.46;101526.69;4955952;28;20035;-68
2022/05/15 10:50:03;;;;;;;11.15;2.72;;;;;;;40.68;20.28;101525.25;5016686;28;20021;-68
2022/05/15 10:52:48;;;;;;;4.03;2.20;;;;;;;40.78;19.81;101524.19;5033997;28;20036;-68
2022/05/15 10:58:19;;;;;;;3.97;2.17;;;;;;;41.15;20.20;101518.31;5047538;28;20051;-69
2022/05/15 11:00:48;;;;;;;5.35;2.20;;;;;;;41.06;20.01;101526.69;5034009;28;20116;-67
2022/05/15 11:03:42;;;;;;;3.35;2.22;;;;;;;41.11;19.76;101528.53;5034102;28;20025;-68
2022/05/15 11:06:11;;;;;;;5.47;1.80;;;;;;;40.40;19.91;101515.16;4980420;28;20383;-68
2022/05/15 11:08:44;;;;;;;8.00;2.08;;;;;;;40.20;20.19;101507.13;5033983;28;20032;-68
2022/05/15 11:11:25;;;;;;;5.05;2.55;;;;;;;40.36;19.69;101514.94;5016232;28;20029;-68
2022/05/15 11:13:59;;;;;;;4.60;1.63;;;;;;;40.58;19.99;101508.59;5033640;28;20013;-68
2022/05/15 11:16:24;;;;;;;6.13;2.28;;;;;;;40.71;19.63;101512.56;5016615;28;20445;-68
2022/05/15 11:19:17;;;;;;;6.70;1.50;;;;;;;40.86;19.54;101509.41;5034058;28;20105;-67
2022/05/15 11:22:04;;;;;;;3.25;1.40;;;;;;;41.03;19.95;101503.97;5033774;28;20026;-68
2022/05/15 11:24:39;;;;;;;4.90;1.50;;;;;;;41.19;19.46;101505.28;5016168;28;20502;-68
2022/05/15 11:27:08;;;;;;;3.15;1.40;;;;;;;41.25;19.43;101504.00;5034100;28;20033;-68
2022/05/15 11:29:38;;;;;;;4.53;2.45;;;;;;;41.37;19.59;101497.84;5033738;28;20546;-69
2022/05/15 11:32:31;;;;;;;4.97;1.52;;;;;;;41.41;19.46;101488.44;5048922;28;20364;-69
2022/05/15 11:35:05;;;;;;;5.75;2.08;;;;;;;41.44;19.07;101492.59;5033746;28;20029;-67
2022/05/15 11:37:57;;;;;;;6.57;1.50;;;;;;;41.51;19.03;101474.13;5033743;28;20497;-68
2022/05/15 11:40:45;;;;;;;8.45;2.45;;;;;;;41.65;19.25;101466.44;4998845;28;20034;-68
2022/05/15 11:43:25;;;;;;;5.93;1.60;;;;;;;41.70;19.21;101469.09;5035369;28;20475;-68
2022/05/15 11:45:52;;;;;;;4.05;1.42;;;;;;;41.78;18.92;101457.09;5038936;28;20455;-68
2022/05/15 11:48:19;;;;;;;3.65;1.60;;;;;;;41.86;19.06;101447.03;5033389;28;20387;-69
2022/05/15 11:51:04;;;;;;;3.13;1.70;;;;;;;41.93;18.96;101438.13;5015996;28;20021;-69